Time;durP1;ratioP1;P1;durP2;ratioP2;P2;SDS_P1;SDS_P2;PMS_P1;PMS_P2;Temp;Humidity;BMP_temperature;BMP_pressure;BME280_temperature;BME280_humidity;BME280_pressure;Samples;Min_cycle;Max_cycle;Signal;HPM_P1;HPM_P2
2023/08/06 00:00:08;;;;;;;21.27;9.57;;;;;;;-145.00;85.97;72968.00;5090740;28;20052;-75
2023/08/06 00:02:34;;;;;;;27.25;10.52;;;;;;;-145.00;85.97;72968.00;5103039;28;20035;-75
2023/08/06 00:05:03;;;;;;;15.07;8.45;;;;;;;-145.00;83.50;72961.75;5094950;28;20532;-76
2023/08/06 00:07:30;;;;;;;22.40;9.25;;;;;;;-145.00;84.18;72959.69;5094234;28;20384;-75
2023/08/06 00:09:56;;;;;;;22.20;9.85;;;;;;;-145.00;84.25;72959.69;5099181;28;20422;-75
2023/08/06 00:12:23;;;;;;;22.90;9.15;;;;;;;-145.00;84.42;72949.28;5104000;28;20044;-75
2023/08/06 00:14:51;;;;;;;19.95;9.73;;;;;;;-145.00;83.94;72945.09;5095279;28;20122;-76
2023/08/06 00:17:18;;;;;;;17.50;8.15;;;;;;;-145.00;82.43;72913.88;5094926;28;20552;-76
2023/08/06 00:19:44;;;;;;;21.02;9.27;;;;;;;-145.00;83.24;72930.53;5095937;28;20123;-76
2023/08/06 00:22:12;;;;;;;20.13;8.20;;;;;;;-145.00;82.36;72951.34;5104812;28;20164;-76
2023/08/06 00:24:39;;;;;;;21.73;8.50;;;;;;;-145.00;81.69;72947.19;5109230;28;20055;-75
2023/08/06 00:27:06;;;;;;;15.15;7.20;;;;;;;-145.00;80.99;72936.78;5103458;28;20053;-75
2023/08/06 00:29:32;;;;;;;13.65;6.57;;;;;;;-145.00;80.29;72922.22;5095184;28;20044;-76
2023/08/06 00:31:59;;;;;;;17.20;7.82;;;;;;;-145.00;79.69;72915.97;5093354;28;20580;-75
2023/08/06 00:34:25;;;;;;;15.77;7.10;;;;;;;-145.00;81.33;72951.34;5094266;28;20048;-76
2023/08/06 00:36:53;;;;;;;19.52;7.28;;;;;;;-145.00;81.47;72951.34;5093729;28;20048;-75
2023/08/06 00:39:21;;;;;;;19.90;7.57;;;;;;;-145.00;81.51;72949.28;5097582;28;20052;-75
2023/08/06 00:41:47;;;;;;;27.48;8.57;;;;;;;-145.00;81.27;72943.03;5099787;28;20044;-75
2023/08/06 00:44:14;;;;;;;14.85;7.22;;;;;;;-145.00;82.43;72963.84;5112242;28;20039;-75
2023/08/06 00:46:41;;;;;;;18.50;7.40;;;;;;;-145.00;82.85;72959.69;5093869;28;20044;-75
2023/08/06 00:49:07;;;;;;;18.95;7.40;;;;;;;-145.00;82.12;72945.09;5093118;28;20055;-75
2023/08/06 00:51:35;;;;;;;16.63;7.93;;;;;;;-145.00;82.76;72943.03;5097161;28;20399;-75
2023/08/06 00:54:03;;;;;;;18.73;8.07;;;;;;;-145.00;81.80;72920.13;5113514;28;20044;-74
2023/08/06 00:56:31;;;;;;;16.92;7.65;;;;;;;-145.00;82.65;72943.03;5113614;28;20054;-75
2023/08/06 00:58:57;;;;;;;12.80;6.97;;;;;;;-145.00;83.00;72945.09;5113664;27;20039;-75
2023/08/06 01:01:24;;;;;;;22.00;8.52;;;;;;;-145.00;82.41;72926.38;5111784;27;20052;-75
2023/08/06 01:03:51;;;;;;;14.45;7.70;;;;;;;-145.00;83.10;72943.03;5107940;28;20051;-75
2023/08/06 01:06:24;;;;;;;20.13;8.80;;;;;;;-145.00;83.42;72934.69;5091121;28;20036;-75
2023/08/06 01:08:58;;;;;;;18.42;8.38;;;;;;;-145.00;83.06;72936.78;5098313;28;20050;-75
2023/08/06 01:11:27;;;;;;;;;;;;;;;-145.00;81.96;72913.88;5095434;28;20076;-76
2023/08/06 01:14:06;;;;;;;22.05;8.73;;;;;;;-145.00;82.97;72924.28;5106417;28;19920;-75
2023/08/06 01:16:34;;;;;;;20.55;8.80;;;;;;;-145.00;82.64;72932.63;5107139;28;20044;-75
2023/08/06 01:19:00;;;;;;;21.40;9.10;;;;;;;-145.00;82.20;72909.72;5111020;28;20054;-76
2023/08/06 01:21:29;;;;;;;19.73;8.95;;;;;;;-145.00;82.39;72915.97;5107501;28;20036;-76
2023/08/06 01:23:55;;;;;;;18.30;8.90;;;;;;;-145.00;82.56;72918.03;5092807;28;20139;-76
2023/08/06 01:26:31;;;;;;;20.13;9.18;;;;;;;-145.00;82.06;72905.56;5110762;28;20058;-75
2023/08/06 01:29:02;;;;;;;19.08;9.38;;;;;;;-145.00;81.63;72918.03;5104547;28;20050;-75
2023/08/06 01:31:32;;;;;;;15.38;8.43;;;;;;;-145.00;81.28;72905.56;5095418;28;20564;-76
2023/08/06 01:34:01;;;;;;;20.10;9.25;;;;;;;-145.00;82.99;72951.34;5106751;28;20047;-76
2023/08/06 01:36:33;;;;;;;19.75;8.95;;;;;;;-145.00;83.46;72947.19;5092527;28;20040;-75
2023/08/06 01:39:02;;;;;;;17.10;8.38;;;;;;;-145.00;83.24;72951.34;5098631;28;20075;-76
2023/08/06 01:41:28;;;;;;;18.70;7.75;;;;;;;-145.00;82.51;72947.19;5101668;28;20054;-76
2023/08/06 01:43:58;;;;;;;18.50;7.55;;;;;;;-145.00;82.84;72970.09;5114633;27;20043;-75
2023/08/06 01:46:24;;;;;;;20.70;7.53;;;;;;;-145.00;81.23;72951.34;5095658;27;20040;-76
2023/08/06 01:48:51;;;;;;;18.67;7.00;;;;;;;-145.00;80.45;72947.19;5113517;28;20035;-76
2023/08/06 01:51:17;;;;;;;18.10;6.85;;;;;;;-145.00;79.98;72968.00;5100187;28;20046;-75
2023/08/06 01:53:45;;;;;;;17.98;6.45;;;;;;;-145.00;80.31;72972.16;5113089;28;20043;-76
2023/08/06 01:56:11;;;;;;;15.85;6.55;;;;;;;-145.00;80.60;72974.25;5101337;28;20036;-76
2023/08/06 01:58:38;;;;;;;16.02;5.55;;;;;;;-145.00;79.29;72959.69;5104139;28;20039;-76
2023/08/06 02:01:04;;;;;;;15.02;5.63;;;;;;;-145.00;79.63;72980.50;5104144;28;20046;-75
2023/08/06 02:03:31;;;;;;;19.63;6.28;;;;;;;-145.00;79.54;72997.16;5092951;28;20424;-76
2023/08/06 02:05:57;;;;;;;15.65;5.53;;;;;;;-145.00;78.72;72980.50;5092460;28;20046;-76
2023/08/06 02:08:24;;;;;;;14.20;5.70;;;;;;;-145.00;78.63;72997.16;5097746;28;20039;-75
2023/08/06 02:10:52;;;;;;;15.02;5.93;;;;;;;-145.00;79.61;73015.88;5091786;28;20047;-75
2023/08/06 02:13:18;;;;;;;13.15;5.18;;;;;;;-145.00;80.08;73007.56;5091453;28;20063;-76
2023/08/06 02:15:47;;;;;;;12.75;4.95;;;;;;;-145.00;79.94;73009.66;5106557;28;20048;-76
2023/08/06 02:18:14;;;;;;;15.57;6.05;;;;;;;-145.00;80.05;73011.72;5112126;28;20036;-76
2023/08/06 02:20:41;;;;;;;14.25;5.85;;;;;;;-145.00;81.06;73026.31;5112138;28;20089;-76
2023/08/06 02:23:07;;;;;;;10.27;4.95;;;;;;;-145.00;80.47;73009.66;5111010;28;20042;-75
2023/08/06 02:25:36;;;;;;;18.65;6.38;;;;;;;-145.00;80.34;73011.72;5112255;28;20110;-76
2023/08/06 02:28:04;;;;;;;12.35;5.20;;;;;;;-145.00;81.13;73011.72;5111458;28;20464;-75
2023/08/06 02:30:30;;;;;;;13.10;6.10;;;;;;;-145.00;81.82;73017.97;5111244;27;20044;-75
2023/08/06 02:32:57;;;;;;;17.70;6.28;;;;;;;-145.00;81.69;73013.81;5105705;28;20399;-76
2023/08/06 02:35:23;;;;;;;18.52;6.90;;;;;;;-145.00;83.00;73034.63;5091014;28;20048;-75
2023/08/06 02:37:50;;;;;;;14.35;6.05;;;;;;;-145.00;82.86;73038.78;5093685;28;20043;-75
2023/08/06 02:40:16;;;;;;;20.35;6.97;;;;;;;-145.00;81.58;72997.16;5099154;28;20050;-75
2023/08/06 02:42:43;;;;;;;16.65;6.60;;;;;;;-145.00;80.82;72976.34;5091536;28;20055;-76
2023/08/06 02:45:11;;;;;;;17.85;7.05;;;;;;;-145.00;82.11;73028.38;5090900;28;20043;-75
2023/08/06 02:47:37;;;;;;;21.20;6.95;;;;;;;-145.00;84.41;73047.13;5091163;28;20451;-75
2023/08/06 02:50:04;;;;;;;24.00;7.65;;;;;;;-145.00;84.15;73032.53;5090481;28;20048;-75
2023/08/06 02:52:31;;;;;;;23.20;8.02;;;;;;;-145.00;85.05;73042.97;5092295;28;20054;-75
2023/08/06 02:55:00;;;;;;;19.73;7.30;;;;;;;-145.00;85.52;73051.28;5111230;28;20564;-75
2023/08/06 02:57:26;;;;;;;21.25;7.35;;;;;;;-145.00;86.36;73051.28;5110612;28;20035;-75
2023/08/06 02:59:53;;;;;;;22.35;7.60;;;;;;;-145.00;86.20;73034.63;5111174;28;20399;-75
2023/08/06 03:02:21;;;;;;;16.73;6.88;;;;;;;-145.00;84.98;73028.38;5102934;28;20722;-75
2023/08/06 03:04:47;;;;;;;14.70;7.22;;;;;;;-145.00;85.31;73026.31;5091052;28;20043;-76
2023/08/06 03:07:14;;;;;;;21.83;7.20;;;;;;;-145.00;85.44;73026.31;5091128;28;20044;-76
2023/08/06 03:09:40;;;;;;;21.98;8.10;;;;;;;-145.00;85.38;73017.97;5100163;28;20047;-76
2023/08/06 03:12:08;;;;;;;17.17;7.45;;;;;;;-145.00;84.78;72997.16;5098624;28;20049;-76
2023/08/06 03:14:34;;;;;;;19.52;7.28;;;;;;;-145.00;83.95;72984.66;5097718;28;20046;-76
2023/08/06 03:17:01;;;;;;;18.35;7.25;;;;;;;-145.00;82.98;72963.84;5095748;28;20071;-75
2023/08/06 03:19:28;;;;;;;17.60;7.18;;;;;;;-145.00;82.31;72976.34;5106313;28;20039;-75
2023/08/06 03:21:55;;;;;;;14.15;6.97;;;;;;;-145.00;84.77;73017.97;5111314;28;20380;-76
2023/08/06 03:24:21;;;;;;;18.02;7.53;;;;;;;-145.00;85.55;73026.31;5105249;28;20156;-76
2023/08/06 03:26:48;;;;;;;15.65;6.93;;;;;;;-145.00;84.54;72995.06;5097596;28;20068;-76
2023/08/06 03:29:14;;;;;;;18.08;7.13;;;;;;;-145.00;83.78;73009.66;5097838;28;20044;-75
2023/08/06 03:31:41;;;;;;;31.27;7.70;;;;;;;-145.00;82.70;72978.41;5101079;28;20483;-76
2023/08/06 03:34:07;;;;;;;21.55;7.65;;;;;;;-145.00;82.76;72984.66;5106544;28;20039;-76
2023/08/06 03:36:35;;;;;;;20.40;7.30;;;;;;;-145.00;82.25;72984.66;5112736;28;20047;-76
2023/08/06 03:39:02;;;;;;;18.10;6.97;;;;;;;-145.00;83.41;73017.97;5105530;28;20508;-74
2023/08/06 03:41:28;;;;;;;15.45;6.68;;;;;;;-145.00;82.96;72997.16;5100112;27;20411;-76
2023/08/06 03:43:55;;;;;;;17.27;7.10;;;;;;;-145.00;82.29;72997.16;5095138;28;20044;-76
2023/08/06 03:46:21;;;;;;;13.90;6.60;;;;;;;-145.00;83.16;73013.81;5094336;28;20044;-76
2023/08/06 03:48:48;;;;;;;19.15;6.60;;;;;;;-145.00;82.32;72993.00;5094518;28;20063;-76
2023/08/06 03:51:14;;;;;;;17.52;6.03;;;;;;;-145.00;81.90;72993.00;5095881;28;20040;-76
2023/08/06 03:53:42;;;;;;;24.95;7.20;;;;;;;-145.00;81.87;73003.41;5096404;28;20048;-76
2023/08/06 03:56:08;;;;;;;15.35;6.00;;;;;;;-145.00;80.83;72978.41;5114471;28;20047;-75
2023/08/06 03:58:35;;;;;;;19.60;6.50;;;;;;;-145.00;80.45;72972.16;5112133;28;20065;-76
2023/08/06 04:01:03;;;;;;;16.42;5.90;;;;;;;-145.00;80.63;72980.50;5093161;28;20046;-74
2023/08/06 04:03:29;;;;;;;15.95;5.88;;;;;;;-145.00;80.14;72972.16;5108777;27;20047;-75
2023/08/06 04:05:56;;;;;;;15.73;5.68;;;;;;;-145.00;80.39;72988.81;5113876;27;20407;-76
2023/08/06 04:08:22;;;;;;;15.75;6.10;;;;;;;-145.00;81.01;72997.16;5111561;28;20035;-76
2023/08/06 04:10:52;;;;;;;14.63;5.65;;;;;;;-145.00;81.60;73017.97;5093838;28;20056;-76
2023/08/06 04:13:18;;;;;;;15.93;5.78;;;;;;;-145.00;81.49;73009.66;5099943;28;20094;-75
2023/08/06 04:15:45;;;;;;;17.40;6.25;;;;;;;-145.00;82.06;73024.22;5113590;28;20047;-76
2023/08/06 04:18:11;;;;;;;15.07;5.55;;;;;;;-145.00;82.34;73017.97;5113296;28;20043;-75
2023/08/06 04:20:43;;;;;;;17.80;6.00;;;;;;;-145.00;81.46;72997.16;5113602;28;20039;-76
2023/08/06 04:23:10;;;;;;;18.35;5.93;;;;;;;-145.00;81.38;73020.06;5111827;28;20050;-76
2023/08/06 04:25:36;;;;;;;21.95;6.47;;;;;;;-145.00;80.83;72993.00;5103976;28;20051;-76
2023/08/06 04:28:04;;;;;;;12.25;5.07;;;;;;;-145.00;80.08;72972.16;5092752;28;20499;-75
2023/08/06 04:30:31;;;;;;;18.13;5.88;;;;;;;-145.00;79.68;72968.00;5092732;28;20052;-76
2023/08/06 04:32:58;;;;;;;15.70;5.95;;;;;;;-145.00;79.60;72976.34;5096558;28;20122;-76
2023/08/06 04:35:25;;;;;;;17.45;5.35;;;;;;;-145.00;79.79;72976.34;5109885;28;20445;-76
2023/08/06 04:37:51;;;;;;;17.85;5.90;;;;;;;-145.00;79.39;72972.16;5094995;28;20044;-75
2023/08/06 04:40:18;;;;;;;14.85;5.68;;;;;;;-145.00;78.55;72951.34;5097918;27;20044;-76
2023/08/06 04:42:44;;;;;;;17.55;6.03;;;;;;;-145.00;79.29;72978.41;5094407;28;20048;-76
2023/08/06 04:45:12;;;;;;;15.38;5.35;;;;;;;-145.00;78.41;72951.34;5112565;28;20047;-76
2023/08/06 04:47:39;;;;;;;14.10;4.90;;;;;;;-145.00;78.25;72955.50;5111938;28;20048;-76
2023/08/06 04:50:06;;;;;;;19.30;5.88;;;;;;;-145.00;79.36;72984.66;5092098;28;20495;-75
2023/08/06 04:52:33;;;;;;;17.98;5.68;;;;;;;-145.00;79.84;72995.06;5091736;28;20495;-76
2023/08/06 04:54:59;;;;;;;13.27;4.75;;;;;;;-145.00;78.81;72959.69;5092452;28;20040;-75
2023/08/06 04:57:26;;;;;;;14.35;5.10;;;;;;;-145.00;78.08;72959.69;5092171;28;20051;-75
2023/08/06 04:59:52;;;;;;;18.05;5.80;;;;;;;-145.00;78.18;72970.09;5092229;28;20052;-76
2023/08/06 05:02:20;;;;;;;16.70;4.95;;;;;;;-145.00;78.71;72984.66;5095636;28;20047;-75
2023/08/06 05:04:47;;;;;;;13.00;4.65;;;;;;;-145.00;77.90;72955.50;5112761;28;20047;-76
2023/08/06 05:07:13;;;;;;;16.67;5.13;;;;;;;-145.00;77.05;72963.84;5111856;28;20089;-77
2023/08/06 05:09:40;;;;;;;15.40;4.55;;;;;;;-145.00;79.11;73017.97;5102153;28;20655;-75
2023/08/06 05:12:07;;;;;;;11.13;4.10;;;;;;;-145.00;79.09;72995.06;5091611;28;20040;-75
2023/08/06 05:14:33;;;;;;;15.27;4.80;;;;;;;-145.00;78.46;72984.66;5092139;28;20040;-75
2023/08/06 05:17:02;;;;;;;11.15;4.10;;;;;;;-145.00;79.21;73009.66;5092097;28;20123;-75
2023/08/06 05:19:29;;;;;;;16.05;5.07;;;;;;;-145.00;79.36;72993.00;5091667;28;20040;-76
2023/08/06 05:21:56;;;;;;;17.35;5.28;;;;;;;-145.00;78.55;72986.75;5089321;28;20047;-78
2023/08/06 05:24:22;;;;;;;24.30;5.45;;;;;;;-145.00;78.57;72986.75;5088761;28;20047;-77
2023/08/06 05:26:49;;;;;;;17.75;4.85;;;;;;;-145.00;77.95;72988.81;5089124;28;20059;-77
2023/08/06 05:29:17;;;;;;;16.27;5.05;;;;;;;-145.00;78.36;72978.41;5088534;28;20747;-77
2023/08/06 05:31:44;;;;;;;14.20;5.35;;;;;;;-145.00;77.93;72976.34;5088824;28;20526;-77
2023/08/06 05:34:10;;;;;;;7.20;4.03;;;;;;;-145.00;78.61;72982.59;5088380;28;20568;-77
2023/08/06 05:36:38;;;;;;;12.43;4.70;;;;;;;-145.00;79.35;72984.66;5089218;28;20139;-76
2023/08/06 05:39:05;;;;;;;8.23;3.63;;;;;;;-145.00;78.18;72980.50;5090281;28;20044;-76
2023/08/06 05:41:31;;;;;;;13.10;4.13;;;;;;;-145.00;79.04;72970.09;5101824;28;20043;-76
2023/08/06 05:43:58;;;;;;;9.32;4.13;;;;;;;-145.00;77.98;72963.84;5089841;28;20044;-75
2023/08/06 05:46:24;;;;;;;11.07;4.40;;;;;;;-145.00;77.34;72943.03;5088493;28;20059;-76
2023/08/06 05:48:51;;;;;;;6.03;2.90;;;;;;;-145.00;76.93;72947.19;5089032;28;20044;-75
2023/08/06 05:51:17;;;;;;;4.32;2.85;;;;;;;-145.00;75.12;72926.38;5093516;28;20051;-76
2023/08/06 05:53:46;;;;;;;5.07;2.88;;;;;;;-145.00;75.05;72940.94;5109540;28;20571;-76
2023/08/06 05:56:13;;;;;;;7.90;3.40;;;;;;;-145.00;75.56;72936.78;5089994;28;20051;-75
2023/08/06 05:58:39;;;;;;;6.90;3.55;;;;;;;-145.00;75.31;72938.88;5103117;28;20044;-78
2023/08/06 06:01:06;;;;;;;9.30;4.15;;;;;;;-145.00;74.91;72922.22;5114829;27;20117;-78
2023/08/06 06:03:32;;;;;;;6.13;2.88;;;;;;;-145.00;73.90;72926.38;5116679;28;20043;-78
2023/08/06 06:06:01;;;;;;;7.72;3.45;;;;;;;-145.00;74.83;72936.78;5100636;28;20063;-79
2023/08/06 06:08:28;;;;;;;7.75;3.42;;;;;;;-145.00;75.08;72934.69;5105076;28;20044;-79
2023/08/06 06:10:55;;;;;;;5.80;3.72;;;;;;;-145.00;75.09;72938.88;5101367;28;20040;-77
2023/08/06 06:13:22;;;;;;;5.97;3.35;;;;;;;-145.00;74.69;72913.88;5113479;27;20059;-75
2023/08/06 06:15:48;;;;;;;9.93;4.35;;;;;;;-145.00;75.74;72947.19;5108807;28;20055;-76
2023/08/06 06:18:15;;;;;;;7.13;3.72;;;;;;;-145.00;75.00;72926.38;5104005;28;20044;-75
2023/08/06 06:20:41;;;;;;;5.97;3.70;;;;;;;-145.00;75.49;72934.69;5087091;28;20052;-74
2023/08/06 06:23:08;;;;;;;5.53;3.40;;;;;;;-145.00;74.81;72926.38;5106161;28;20047;-77
2023/08/06 06:25:34;;;;;;;7.00;3.72;;;;;;;-145.00;72.87;72880.56;5107081;28;20139;-77
2023/08/06 06:28:02;;;;;;;7.22;3.65;;;;;;;-145.00;75.58;72949.28;5097027;28;20063;-77
2023/08/06 06:30:29;;;;;;;7.18;3.50;;;;;;;-145.00;77.11;72972.16;5103732;28;20043;-76
2023/08/06 06:32:55;;;;;;;6.88;4.13;;;;;;;-145.00;78.29;72982.59;5099489;28;20392;-77
2023/08/06 06:35:22;;;;;;;7.28;3.40;;;;;;;-145.00;78.65;72993.00;5095262;28;20047;-76
2023/08/06 06:37:49;;;;;;;7.93;4.45;;;;;;;-145.00;78.27;73003.41;5107756;28;20050;-76
2023/08/06 06:40:15;;;;;;;6.40;3.42;;;;;;;-145.00;77.90;72976.34;5092722;28;20058;-75
2023/08/06 06:42:42;;;;;;;6.70;3.78;;;;;;;-145.00;78.27;72978.41;5096075;28;20058;-80
2023/08/06 06:45:11;;;;;;;6.85;4.13;;;;;;;-145.00;78.53;72982.59;5093803;28;20043;-78
2023/08/06 06:47:38;;;;;;;9.35;4.07;;;;;;;-145.00;77.11;72980.50;5089548;28;20044;-77
2023/08/06 06:50:05;;;;;;;6.43;3.78;;;;;;;-145.00;77.30;72951.34;5087501;28;20052;-77
2023/08/06 06:52:31;;;;;;;8.40;4.35;;;;;;;-145.00;76.81;72947.19;5090310;28;20044;-78
2023/08/06 06:54:58;;;;;;;5.80;3.33;;;;;;;-145.00;76.48;72957.59;5095664;28;20051;-78
2023/08/06 06:57:24;;;;;;;6.22;3.58;;;;;;;-145.00;75.36;72928.44;5088417;28;20044;-80
2023/08/06 06:59:51;;;;;;;5.68;3.22;;;;;;;-145.00;74.27;72918.03;5107497;28;20134;-79
2023/08/06 07:02:19;;;;;;;4.43;3.08;;;;;;;-145.00;73.93;72901.38;5088793;28;20047;-77
2023/08/06 07:04:45;;;;;;;5.10;2.60;;;;;;;-145.00;73.26;72897.22;5097100;28;20529;-75
2023/08/06 07:07:12;;;;;;;6.25;3.10;;;;;;;-145.00;72.94;72876.41;5107451;28;20051;-75
2023/08/06 07:09:38;;;;;;;4.32;2.30;;;;;;;-145.00;71.69;72893.06;5092072;28;20048;-75
2023/08/06 07:12:06;;;;;;;4.45;2.70;;;;;;;-145.00;70.54;72876.41;5086898;28;20051;-75
2023/08/06 07:14:32;;;;;;;5.00;2.63;;;;;;;-145.00;70.40;72857.66;5098816;28;20132;-76
2023/08/06 07:16:59;;;;;;;3.80;2.47;;;;;;;-145.00;69.82;72866.00;5107309;28;20047;-74
2023/08/06 07:19:27;;;;;;;6.40;2.42;;;;;;;-145.00;68.15;72843.09;5104497;27;20043;-75
2023/08/06 07:21:53;;;;;;;4.70;2.65;;;;;;;-145.00;67.77;72830.59;5087867;28;20071;-77
2023/08/06 07:24:20;;;;;;;3.30;2.13;;;;;;;-145.00;67.52;72818.13;5097458;28;20672;-76
2023/08/06 07:26:48;;;;;;;5.28;2.10;;;;;;;-145.00;66.80;72816.03;5087528;28;20087;-75
2023/08/06 07:29:19;;;;;;;4.28;1.70;;;;;;;-145.00;67.16;72793.13;5086505;28;20048;-74
2023/08/06 07:31:46;;;;;;;3.72;2.30;;;;;;;-145.00;65.76;72755.66;5087049;28;20055;-74
2023/08/06 07:34:12;;;;;;;3.15;1.80;;;;;;;-145.00;65.28;72757.75;5103396;28;20047;-74
2023/08/06 07:36:42;;;;;;;5.38;2.47;;;;;;;-145.00;66.69;72766.06;5102255;28;20062;-75
2023/08/06 07:39:08;;;;;;;3.22;1.95;;;;;;;-145.00;66.01;72755.66;5094584;28;20044;-75
2023/08/06 07:41:36;;;;;;;3.72;2.22;;;;;;;-145.00;65.60;72772.31;5086936;28;20521;-75
2023/08/06 07:44:02;;;;;;;4.93;1.80;;;;;;;-145.00;66.03;72755.66;5086611;28;20051;-75
2023/08/06 07:46:29;;;;;;;2.05;1.50;;;;;;;-145.00;65.61;72743.19;5106537;28;20047;-75
2023/08/06 07:48:55;;;;;;;3.05;1.80;;;;;;;-145.00;65.83;72743.19;5090762;28;20510;-75
2023/08/06 07:51:22;;;;;;;8.43;1.70;;;;;;;-145.00;63.36;72755.66;5085952;28;20499;-74
2023/08/06 07:53:49;;;;;;;2.22;1.45;;;;;;;-145.00;63.94;72736.94;5086892;28;20056;-76
2023/08/06 07:56:16;;;;;;;1.75;1.30;;;;;;;-145.00;64.22;72718.19;5098834;28;20043;-76
2023/08/06 07:58:42;;;;;;;3.70;1.50;;;;;;;-145.00;63.53;72709.88;5107416;28;20059;-76
2023/08/06 08:01:09;;;;;;;3.88;1.50;;;;;;;-145.00;65.04;72753.59;5106594;28;20159;-74
2023/08/06 08:03:35;;;;;;;3.42;1.40;;;;;;;-145.00;65.24;72761.91;5092055;28;20063;-74
2023/08/06 08:06:02;;;;;;;2.17;1.30;;;;;;;-145.00;64.51;72743.19;5096791;28;20502;-74
2023/08/06 08:08:28;;;;;;;3.83;1.88;;;;;;;-145.00;62.32;72716.13;5106483;28;20059;-74
2023/08/06 08:10:58;;;;;;;4.72;1.10;;;;;;;-145.00;61.72;72714.03;5088972;28;20392;-75
2023/08/06 08:13:25;;;;;;;1.45;1.05;;;;;;;-145.00;60.61;72718.19;5098712;28;20054;-73
2023/08/06 08:15:57;;;;;;;2.97;0.90;;;;;;;-145.00;59.60;72705.69;5098430;28;20043;-76
2023/08/06 08:18:24;;;;;;;1.00;0.70;;;;;;;-145.00;59.17;72689.06;5086420;28;20060;-76
2023/08/06 08:20:50;;;;;;;2.33;0.82;;;;;;;-145.00;59.51;72668.22;5086573;28;20690;-76
2023/08/06 08:23:17;;;;;;;0.80;0.80;;;;;;;-145.00;58.73;72664.06;5086302;28;20048;-76
2023/08/06 08:25:44;;;;;;;2.55;0.90;;;;;;;-145.00;58.27;72664.06;5102129;28;20050;-77
2023/08/06 08:28:11;;;;;;;3.50;1.00;;;;;;;-145.00;59.17;72680.72;5112874;28;20052;-77
2023/08/06 08:30:38;;;;;;;3.00;0.80;;;;;;;-145.00;58.73;72651.59;5111366;28;20130;-76
2023/08/06 08:33:04;;;;;;;2.67;0.80;;;;;;;-145.00;57.75;72651.59;5101383;28;20043;-75
2023/08/06 08:35:31;;;;;;;2.65;0.82;;;;;;;-145.00;59.03;72643.25;5089898;28;20044;-76
2023/08/06 08:37:57;;;;;;;2.80;0.73;;;;;;;-145.00;59.48;72647.41;5089392;28;20056;-73
2023/08/06 08:40:30;;;;;;;1.20;0.75;;;;;;;-145.00;59.14;72630.75;5089417;28;20131;-73
2023/08/06 08:42:58;;;;;;;3.05;0.82;;;;;;;-145.00;56.76;72630.75;5094288;28;20513;-75
2023/08/06 08:45:29;;;;;;;3.75;1.40;;;;;;;-145.00;57.31;72641.16;5094574;28;20048;-77
2023/08/06 08:47:56;;;;;;;3.13;1.88;;;;;;;-145.00;57.86;72591.22;5088685;28;20044;-74
2023/08/06 08:50:23;;;;;;;1.40;0.70;;;;;;;-145.00;54.75;72526.69;5107090;28;20040;-77
2023/08/06 08:52:51;;;;;;;5.20;1.10;;;;;;;-145.00;55.80;72570.41;5101910;27;20044;-77
2023/08/06 08:55:21;;;;;;;3.50;1.17;;;;;;;-145.00;55.35;72589.13;5107937;27;20122;-76
2023/08/06 08:57:47;;;;;;;4.75;1.10;;;;;;;-145.00;56.53;72643.25;5113142;28;20043;-77
2023/08/06 09:00:14;;;;;;;2.53;1.30;;;;;;;-145.00;55.99;72651.59;5092895;28;20052;-76
2023/08/06 09:02:43;;;;;;;3.47;1.30;;;;;;;-145.00;56.55;72639.09;5098526;27;20104;-76
2023/08/06 09:05:11;;;;;;;3.13;1.35;;;;;;;-145.00;55.54;72622.44;5095261;28;20050;-74
2023/08/06 09:07:42;;;;;;;4.95;1.48;;;;;;;-145.00;55.56;72566.22;5105396;28;20047;-73
2023/08/06 09:10:12;;;;;;;2.72;1.35;;;;;;;-145.00;53.52;72512.09;5099114;28;20052;-76
2023/08/06 09:12:38;;;;;;;3.42;0.80;;;;;;;-145.00;52.46;72501.69;5100751;28;20521;-78
2023/08/06 09:15:06;;;;;;;4.85;1.58;;;;;;;-145.00;54.50;72537.09;5100846;28;20051;-76
2023/08/06 09:17:32;;;;;;;3.00;1.30;;;;;;;-145.00;54.41;72555.81;5099774;28;20430;-80
2023/08/06 09:20:09;;;;;;;5.13;1.85;;;;;;;-145.00;54.73;72539.16;5104909;28;20067;-77
2023/08/06 09:22:36;;;;;;;3.65;1.50;;;;;;;-145.00;55.15;72555.81;5094048;28;20056;-77
2023/08/06 09:25:04;;;;;;;3.55;1.58;;;;;;;-145.00;55.23;72526.69;5093619;28;20052;-76
2023/08/06 09:27:30;;;;;;;7.18;2.08;;;;;;;-145.00;53.23;72551.66;5092929;28;20071;-77
2023/08/06 09:29:57;;;;;;;4.28;1.50;;;;;;;-145.00;54.44;72574.56;5091935;28;20052;-77
2023/08/06 09:32:25;;;;;;;3.33;1.27;;;;;;;-145.00;55.60;72618.28;5101696;28;20051;-78
2023/08/06 09:34:57;;;;;;;2.20;1.23;;;;;;;-145.00;56.03;72632.84;5093167;28;20068;-77
2023/08/06 09:37:26;;;;;;;5.50;1.17;;;;;;;-145.00;56.15;72666.16;5103125;27;20047;-77
2023/08/06 09:39:53;;;;;;;7.00;2.45;;;;;;;-145.00;57.93;72693.22;5094566;28;20131;-77
2023/08/06 09:42:20;;;;;;;4.03;1.75;;;;;;;-145.00;57.40;72714.03;5101063;28;20067;-77
2023/08/06 09:44:46;;;;;;;6.80;2.70;;;;;;;-145.00;61.46;72776.47;5090743;28;20047;-75
2023/08/06 09:47:17;;;;;;;7.95;2.08;;;;;;;-145.00;61.77;72784.81;5107545;28;20051;-75
2023/08/06 09:49:45;;;;;;;5.45;1.83;;;;;;;-145.00;62.68;72805.63;5110112;28;20414;-74
2023/08/06 09:52:13;;;;;;;6.43;2.05;;;;;;;-145.00;63.76;72797.31;5100893;27;20043;-76
2023/08/06 09:54:42;;;;;;;10.23;2.10;;;;;;;-145.00;65.17;72830.59;5100607;28;20499;-74
2023/08/06 09:57:10;;;;;;;6.68;2.28;;;;;;;-145.00;66.95;72855.59;5091613;28;20056;-74
2023/08/06 09:59:37;;;;;;;10.15;2.75;;;;;;;-145.00;68.13;72884.72;5087973;28;20684;-75
2023/08/06 10:02:13;;;;;;;6.45;2.05;;;;;;;-145.00;68.06;72876.41;5088094;28;20056;-76
2023/08/06 10:04:40;;;;;;;5.82;2.15;;;;;;;-145.00;68.42;72880.56;5097371;28;20051;-77
2023/08/06 10:07:07;;;;;;;5.55;2.05;;;;;;;-145.00;68.71;72872.25;5104088;28;20122;-77
2023/08/06 10:09:33;;;;;;;8.18;2.50;;;;;;;-145.00;69.38;72868.09;5091780;28;20051;-75
2023/08/06 10:12:01;;;;;;;7.07;1.75;;;;;;;-145.00;69.68;72863.91;5096612;28;20047;-76
2023/08/06 10:14:31;;;;;;;8.77;2.30;;;;;;;-145.00;68.81;72868.09;5102632;27;20510;-76
2023/08/06 10:16:59;;;;;;;7.00;2.08;;;;;;;-145.00;69.76;72897.22;5100009;28;20052;-73
2023/08/06 10:19:26;;;;;;;9.88;2.50;;;;;;;-145.00;71.16;72893.06;5107710;28;20051;-73
2023/08/06 10:22:13;;;;;;;14.95;2.95;;;;;;;-145.00;70.28;72905.56;5092406;28;20055;-74
2023/08/06 10:24:53;;;;;;;5.40;1.50;;;;;;;-145.00;72.17;72918.03;5087735;28;20048;-75
2023/08/06 10:27:30;;;;;;;4.28;1.30;;;;;;;-145.00;71.04;72930.53;5098412;28;20062;-74
2023/08/06 10:29:57;;;;;;;7.63;2.00;;;;;;;-145.00;69.90;72930.53;5108112;28;20128;-74
2023/08/06 10:32:47;;;;;;;8.07;1.95;;;;;;;-145.00;69.72;72926.38;5091464;27;20052;-75
2023/08/06 10:35:29;;;;;;;7.63;2.13;;;;;;;-145.00;67.50;72915.97;5087392;28;20074;-75
2023/08/06 10:37:59;;;;;;;8.75;2.17;;;;;;;-145.00;66.29;72895.16;5090380;28;20479;-74
2023/08/06 10:40:26;;;;;;;8.15;2.20;;;;;;;-145.00;64.94;72874.31;5087475;28;20075;-74
2023/08/06 10:42:53;;;;;;;6.00;1.60;;;;;;;-145.00;66.08;72851.44;5087359;28;20048;-75
2023/08/06 10:45:24;;;;;;;7.75;1.90;;;;;;;-145.00;64.00;72818.13;5087662;28;20048;-74
2023/08/06 10:47:50;;;;;;;6.47;1.83;;;;;;;-145.00;61.46;72768.16;5106455;28;20155;-75
2023/08/06 10:50:18;;;;;;;7.20;2.33;;;;;;;-145.00;63.35;72751.50;5106695;28;20052;-74
2023/08/06 10:52:44;;;;;;;3.42;1.25;;;;;;;-145.00;60.29;72730.69;5108057;28;20811;-76
2023/08/06 10:55:11;;;;;;;9.02;2.35;;;;;;;-145.00;61.45;72743.19;5107515;28;20050;-76
2023/08/06 10:57:38;;;;;;;6.05;2.33;;;;;;;-145.00;59.39;72730.69;5088160;28;20048;-75
2023/08/06 11:00:12;;;;;;;4.88;1.95;;;;;;;-145.00;58.67;72707.78;5086427;28;20138;-75
2023/08/06 11:02:39;;;;;;;10.88;2.38;;;;;;;-145.00;57.09;72655.75;5086522;28;20048;-73
2023/08/06 11:05:07;;;;;;;4.82;1.58;;;;;;;-145.00;56.22;72589.13;5086226;28;20707;-73
2023/08/06 11:07:33;;;;;;;5.45;1.65;;;;;;;-145.00;55.42;72522.53;5104513;28;20067;-73
2023/08/06 11:10:04;;;;;;;8.10;1.60;;;;;;;-145.00;53.60;72510.03;5086907;28;20055;-73
2023/08/06 11:12:31;;;;;;;3.97;1.88;;;;;;;-145.00;54.12;72555.81;5095112;28;20044;-73
2023/08/06 11:14:58;;;;;;;5.18;1.23;;;;;;;-145.00;53.45;72593.28;5102905;28;20498;-73